Terminal Aerodrome Forecast
Issued by NWS Tampa Bay Area, FL

Home | Current Version | Previous Version | Text Only | Print | Product List | Glossary On
Versions: 1 2 3 4 5 6 7 8 9 10 11 12
432
FTUS42 KTBW 300538
TAFFMY
TAF
KFMY 300538Z 3006/3106 VRB03KT P6SM SCT050 SCT120
     FM301600 23006KT P6SM VCTS SCT050CB BKN100
     FM302000 25007KT P6SM SCT045 BKN100
     FM310200 02005KT P6SM SCT060 BKN100=

USA.gov is the U.S. government's official web portal to all federal, state and local government web resources and services.